createdAt,value
2022-10-31T00:01:00.678Z,72.25
2022-10-31T00:03:39.532Z,71.99
2022-10-31T00:06:06.772Z,72.10
2022-10-31T00:08:33.829Z,72.03
2022-10-31T00:11:01.018Z,72.07
2022-10-31T00:13:28.130Z,72.07
2022-10-31T00:15:55.300Z,71.95
2022-10-31T00:18:22.425Z,72.05
2022-10-31T00:20:49.427Z,72.22
2022-10-31T00:23:16.601Z,71.92
2022-10-31T00:25:43.704Z,72.01
2022-10-31T00:28:12.913Z,71.95
2022-10-31T00:30:40.130Z,72.02
2022-10-31T00:33:07.157Z,72.13
2022-10-31T00:35:34.396Z,71.86
2022-10-31T00:38:01.658Z,72.05
2022-10-31T00:40:28.761Z,72.10
2022-10-31T00:42:55.959Z,72.02
2022-10-31T00:45:24.147Z,72.05
2022-10-31T00:47:51.534Z,71.82
2022-10-31T00:50:18.782Z,71.91
2022-10-31T00:52:45.774Z,71.97
2022-10-31T00:55:12.979Z,71.85
2022-10-31T00:57:40.396Z,71.93
2022-10-31T01:00:08.306Z,71.90
2022-10-31T01:02:35.906Z,72.04
2022-10-31T01:05:03.312Z,71.91
2022-10-31T01:07:30.346Z,71.91
2022-10-31T01:09:57.457Z,71.93
2022-10-31T01:12:26.565Z,71.87
2022-10-31T01:14:53.672Z,71.99
2022-10-31T01:17:20.797Z,72.13
2022-10-31T01:19:47.820Z,71.98
2022-10-31T01:22:14.917Z,72.07
2022-10-31T01:24:41.995Z,72.20
2022-10-31T01:27:09.076Z,72.21
2022-10-31T01:29:36.236Z,72.18
2022-10-31T01:32:03.435Z,72.14
2022-10-31T01:34:30.592Z,72.11
2022-10-31T01:36:57.800Z,72.09
2022-10-31T01:39:24.996Z,72.35
2022-10-31T01:41:54.279Z,72.15
2022-10-31T01:44:21.398Z,72.08
2022-10-31T01:46:59.557Z,72.17
2022-10-31T01:49:32.575Z,71.99
2022-10-31T01:52:10.874Z,72.20
2022-10-31T01:54:43.972Z,72.25
2022-10-31T01:57:14.230Z,72.23
2022-10-31T01:59:45.139Z,72.23
2022-10-31T02:02:14.094Z,72.17
2022-10-31T02:04:42.199Z,72.09
2022-10-31T02:07:17.334Z,71.99
2022-10-31T02:09:47.559Z,71.80
2022-10-31T02:12:15.940Z,71.82
2022-10-31T02:14:43.294Z,71.78
2022-10-31T02:17:10.483Z,72.04
2022-10-31T02:19:58.279Z,72.07
2022-10-31T02:22:28.484Z,72.04
2022-10-31T02:25:42.867Z,72.16
2022-10-31T02:28:28.209Z,71.92
2022-10-31T02:31:16.995Z,72.00
2022-10-31T02:33:50.698Z,72.02
2022-10-31T02:36:30.602Z,72.07
2022-10-31T02:39:00.548Z,72.06
2022-10-31T02:41:46.154Z,72.07
2022-10-31T02:44:45.657Z,72.12
2022-10-31T02:47:29.380Z,72.06
2022-10-31T02:50:09.939Z,72.05
2022-10-31T02:52:39.390Z,72.10
2022-10-31T02:55:27.917Z,71.94
2022-10-31T02:58:07.613Z,71.93
2022-10-31T03:00:48.411Z,71.95
2022-10-31T03:03:40.435Z,71.93
2022-10-31T03:06:15.638Z,71.88
2022-10-31T03:08:55.642Z,71.99
2022-10-31T03:11:29.432Z,71.80
2022-10-31T03:14:10.134Z,71.81
2022-10-31T03:16:56.517Z,71.95
2022-10-31T03:19:27.575Z,72.11
2022-10-31T03:22:05.848Z,72.17
2022-10-31T03:24:39.613Z,72.07
2022-10-31T03:27:10.981Z,72.11
2022-10-31T03:29:41.343Z,72.18
2022-10-31T03:32:24.916Z,72.13
2022-10-31T03:34:58.184Z,72.09
2022-10-31T03:37:28.110Z,72.14
2022-10-31T03:39:58.311Z,72.12
2022-10-31T03:42:28.357Z,72.34
2022-10-31T03:45:03.237Z,72.20
2022-10-31T03:47:30.713Z,72.25
2022-10-31T03:49:58.646Z,72.45
2022-10-31T03:52:38.653Z,72.34
2022-10-31T03:55:11.882Z,72.21
2022-10-31T03:57:48.298Z,72.16
2022-10-31T04:00:17.505Z,72.03
2022-10-31T04:03:10.340Z,72.15
2022-10-31T04:05:39.273Z,72.25
2022-10-31T04:08:11.022Z,72.27
2022-10-31T04:10:39.899Z,72.31
2022-10-31T04:13:11.355Z,72.46
2022-10-31T04:15:50.052Z,72.39
2022-10-31T04:18:17.627Z,72.34
2022-10-31T04:20:45.032Z,72.37
2022-10-31T04:23:23.286Z,72.20
2022-10-31T04:25:50.573Z,72.27
2022-10-31T04:30:46.316Z,72.20
2022-10-31T04:33:13.460Z,72.24
2022-10-31T04:35:41.284Z,72.36
2022-10-31T04:38:08.467Z,72.33
2022-10-31T04:40:35.812Z,72.55
2022-10-31T04:43:21.587Z,72.56
2022-10-31T04:45:49.112Z,72.32
2022-10-31T04:48:16.570Z,72.30
2022-10-31T04:50:45.253Z,72.31
2022-10-31T04:53:13.712Z,72.41
2022-10-31T04:56:01.649Z,72.27
2022-10-31T04:58:37.185Z,72.40
2022-10-31T05:01:06.607Z,72.48
2022-10-31T05:03:33.940Z,72.45
2022-10-31T05:06:01.084Z,72.39
2022-10-31T05:08:28.436Z,72.39
2022-10-31T05:10:57.355Z,72.41
2022-10-31T05:13:27.865Z,72.40
2022-10-31T05:16:13.315Z,72.48
2022-10-31T05:19:02.952Z,72.50
2022-10-31T05:22:02.551Z,72.62
2022-10-31T05:24:29.850Z,72.44
2022-10-31T05:26:56.993Z,72.38
2022-10-31T05:29:24.212Z,72.53
2022-10-31T05:31:52.171Z,72.46
2022-10-31T05:34:42.372Z,72.60
2022-10-31T05:37:32.146Z,72.69
2022-10-31T05:40:05.298Z,72.51
2022-10-31T05:42:35.480Z,72.63
2022-10-31T05:45:02.677Z,72.66
2022-10-31T05:47:57.175Z,72.57
2022-10-31T05:50:44.936Z,72.80
2022-10-31T05:53:12.498Z,72.67
2022-10-31T05:55:41.871Z,72.74
2022-10-31T05:58:14.368Z,72.67
2022-10-31T06:00:48.110Z,72.59
2022-10-31T06:03:15.846Z,72.79
2022-10-31T06:05:55.787Z,72.78
2022-10-31T06:08:25.885Z,72.78
2022-10-31T06:10:54.869Z,72.72
2022-10-31T06:13:31.007Z,72.68
2022-10-31T06:16:09.352Z,72.77
2022-10-31T06:18:37.443Z,72.59
2022-10-31T06:21:04.662Z,72.62
2022-10-31T06:23:31.756Z,72.58
2022-10-31T06:26:18.899Z,72.68
2022-10-31T06:28:46.079Z,72.72
2022-10-31T06:31:25.066Z,72.75
2022-10-31T06:33:52.668Z,72.51
2022-10-31T06:36:19.909Z,72.86
2022-10-31T06:38:47.868Z,72.54
2022-10-31T06:41:16.713Z,72.66
2022-10-31T06:43:48.294Z,72.45
2022-10-31T06:46:50.259Z,72.63
2022-10-31T06:49:35.885Z,72.66
2022-10-31T06:52:06.411Z,72.63
2022-10-31T06:54:33.552Z,72.67
2022-10-31T06:57:01.077Z,72.57
2022-10-31T06:59:28.776Z,72.64
2022-10-31T07:02:16.268Z,72.78
2022-10-31T07:04:43.691Z,72.75
2022-10-31T07:07:13.756Z,72.80
2022-10-31T07:09:41.123Z,72.78
2022-10-31T07:12:09.732Z,72.88
2022-10-31T07:14:39.192Z,72.74
2022-10-31T07:17:06.349Z,72.74
2022-10-31T07:19:37.015Z,72.81
2022-10-31T07:22:04.076Z,72.73
2022-10-31T07:24:31.606Z,72.78
2022-10-31T07:29:26.886Z,72.80
2022-10-31T07:31:53.972Z,72.77
2022-10-31T07:34:25.325Z,72.69
2022-10-31T07:37:30.840Z,72.68
2022-10-31T07:39:59.199Z,72.63
2022-10-31T07:42:26.387Z,72.80
2022-10-31T07:44:56.751Z,72.78
2022-10-31T07:47:53.313Z,72.96
2022-10-31T07:50:38.945Z,73.01
2022-10-31T07:53:32.079Z,72.62
2022-10-31T07:56:11.809Z,72.63
2022-10-31T07:58:38.845Z,72.69
2022-10-31T08:01:06.221Z,72.74
2022-10-31T08:03:39.212Z,72.58
2022-10-31T08:06:26.384Z,72.69
2022-10-31T08:08:55.924Z,72.59
2022-10-31T08:11:23.738Z,72.69
2022-10-31T08:13:50.878Z,72.72
2022-10-31T08:16:18.637Z,72.66
2022-10-31T08:18:57.899Z,72.55
2022-10-31T08:21:25.092Z,72.53
2022-10-31T08:23:52.167Z,72.41
2022-10-31T08:26:21.164Z,72.67
2022-10-31T08:28:50.921Z,72.77
2022-10-31T08:31:20.099Z,72.69
2022-10-31T08:33:47.263Z,72.74
2022-10-31T08:36:20.991Z,72.56
2022-10-31T08:39:15.082Z,72.54
2022-10-31T08:41:42.319Z,72.37
2022-10-31T08:44:12.174Z,72.38
2022-10-31T08:46:39.554Z,72.26
2022-10-31T08:49:06.779Z,72.29
2022-10-31T08:51:34.797Z,72.19
2022-10-31T08:54:01.944Z,72.42
2022-10-31T08:57:04.385Z,72.15
2022-10-31T08:59:43.429Z,72.22
2022-10-31T09:02:24.924Z,72.16
2022-10-31T09:04:54.630Z,72.21
2022-10-31T09:07:22.430Z,72.17
2022-10-31T09:09:49.571Z,72.24
2022-10-31T09:12:17.541Z,72.23
2022-10-31T09:15:07.900Z,72.13
2022-10-31T09:17:49.390Z,72.17
2022-10-31T09:20:30.591Z,72.34
2022-10-31T09:23:07.284Z,72.26
2022-10-31T09:25:36.661Z,72.23
2022-10-31T09:28:29.616Z,72.22
2022-10-31T09:30:59.589Z,71.98
2022-10-31T09:33:45.728Z,72.05
2022-10-31T09:36:42.113Z,72.16
2022-10-31T09:39:13.136Z,71.96
2022-10-31T09:42:02.372Z,72.08
2022-10-31T09:44:48.021Z,72.12
2022-10-31T09:47:53.248Z,72.13
2022-10-31T09:50:48.598Z,71.81
2022-10-31T09:53:51.396Z,71.97
2022-10-31T09:56:24.055Z,71.69
2022-10-31T09:58:59.311Z,71.82
2022-10-31T10:01:48.766Z,71.87
2022-10-31T10:04:35.276Z,71.96
2022-10-31T10:07:20.503Z,71.90
2022-10-31T10:10:22.888Z,71.71
2022-10-31T10:13:40.501Z,71.70
2022-10-31T10:16:16.060Z,71.62
2022-10-31T10:18:49.297Z,71.75
2022-10-31T10:21:53.648Z,71.78
2022-10-31T10:24:29.594Z,71.76
2022-10-31T10:27:22.368Z,71.93
2022-10-31T10:30:09.512Z,71.85
2022-10-31T10:32:52.183Z,71.70
2022-10-31T10:35:40.412Z,71.52
2022-10-31T10:38:26.047Z,71.56
2022-10-31T10:40:54.907Z,71.65
2022-10-31T10:43:28.483Z,71.66
2022-10-31T10:46:39.213Z,71.48
2022-10-31T10:49:17.994Z,71.41
2022-10-31T10:54:48.914Z,71.40
2022-10-31T10:57:22.007Z,71.42
2022-10-31T10:59:49.998Z,71.29
2022-10-31T11:02:25.471Z,71.39
2022-10-31T11:04:55.923Z,71.36
2022-10-31T11:07:23.239Z,71.60
2022-10-31T11:09:50.555Z,71.39
2022-10-31T11:12:22.681Z,71.46
2022-10-31T11:14:49.753Z,71.29
2022-10-31T11:17:31.809Z,71.26
2022-10-31T11:20:22.863Z,71.38
2022-10-31T11:22:50.444Z,71.46
2022-10-31T11:25:20.281Z,71.29
2022-10-31T11:27:47.870Z,71.33
2022-10-31T11:30:16.404Z,71.45
2022-10-31T11:32:55.057Z,71.29
2022-10-31T11:35:25.368Z,71.30
2022-10-31T11:37:55.031Z,71.27
2022-10-31T11:40:27.211Z,71.24
2022-10-31T11:42:58.540Z,71.05
2022-10-31T11:45:30.960Z,71.17
2022-10-31T11:48:00.223Z,71.12
2022-10-31T11:50:37.747Z,71.29
2022-10-31T11:53:12.464Z,71.21
2022-10-31T11:55:41.002Z,71.03
2022-10-31T11:58:27.090Z,71.04
2022-10-31T12:00:56.743Z,71.04
2022-10-31T12:03:23.837Z,71.00
2022-10-31T12:06:01.003Z,71.07
2022-10-31T12:08:32.436Z,71.11
2022-10-31T12:11:03.201Z,71.24
2022-10-31T12:13:38.630Z,71.19
2022-10-31T12:16:43.212Z,71.11
2022-10-31T12:19:39.114Z,71.12
2022-10-31T12:22:20.861Z,71.10
2022-10-31T12:25:14.153Z,71.05
2022-10-31T12:28:05.060Z,70.95
2022-10-31T12:31:09.835Z,71.17
2022-10-31T12:34:09.318Z,70.99
2022-10-31T12:36:54.528Z,70.99
2022-10-31T12:39:26.088Z,71.05
2022-10-31T12:41:57.544Z,70.96
2022-10-31T12:44:50.657Z,70.98
2022-10-31T12:47:36.146Z,70.96
2022-10-31T12:50:21.748Z,71.12
2022-10-31T12:53:10.918Z,71.04
2022-10-31T12:55:56.948Z,71.17
2022-10-31T12:58:30.314Z,71.00
2022-10-31T13:01:24.003Z,71.09
2022-10-31T13:04:04.425Z,71.10
2022-10-31T13:06:42.002Z,71.17
2022-10-31T13:09:16.727Z,71.07
2022-10-31T13:11:49.567Z,71.21
2022-10-31T13:14:25.689Z,71.07
2022-10-31T13:16:53.536Z,71.29
2022-10-31T13:19:27.429Z,71.12
2022-10-31T13:22:00.503Z,71.23
2022-10-31T13:24:37.900Z,71.12
2022-10-31T13:27:21.635Z,71.16
2022-10-31T13:30:00.559Z,71.32
2022-10-31T13:32:38.274Z,71.17
2022-10-31T13:35:08.875Z,71.22
2022-10-31T13:37:41.804Z,71.34
2022-10-31T13:40:34.390Z,71.43
2022-10-31T13:43:25.379Z,71.39
2022-10-31T13:45:54.809Z,71.40
2022-10-31T13:48:42.171Z,71.48
2022-10-31T13:51:12.010Z,71.56
2022-10-31T13:53:40.607Z,71.47
2022-10-31T13:56:10.753Z,71.33
2022-10-31T13:58:38.078Z,71.58
2022-10-31T14:01:11.438Z,71.63
2022-10-31T14:04:07.764Z,71.57
2022-10-31T14:06:55.749Z,71.84
2022-10-31T14:09:49.328Z,71.74
2022-10-31T14:12:27.259Z,71.63
2022-10-31T14:15:00.854Z,71.76
2022-10-31T14:17:35.245Z,71.57
2022-10-31T14:20:11.490Z,71.44
2022-10-31T14:22:42.802Z,71.72
2022-10-31T14:25:36.729Z,71.63
2022-10-31T14:28:20.409Z,71.66
2022-10-31T14:30:58.866Z,71.75
2022-10-31T14:33:29.329Z,71.82
2022-10-31T14:36:20.008Z,71.83
2022-10-31T14:38:57.753Z,71.83
2022-10-31T14:41:42.302Z,71.91
2022-10-31T14:44:25.551Z,71.75
2022-10-31T14:47:11.449Z,71.88
2022-10-31T14:49:44.504Z,71.92
2022-10-31T14:52:15.474Z,71.86
2022-10-31T14:54:48.175Z,71.82
2022-10-31T14:57:20.112Z,71.88
2022-10-31T14:59:51.800Z,72.02
2022-10-31T15:02:37.804Z,71.98
2022-10-31T15:05:10.120Z,71.97
2022-10-31T15:07:41.018Z,72.06
2022-10-31T15:10:22.847Z,72.10
2022-10-31T15:12:50.229Z,72.03
2022-10-31T15:15:26.802Z,71.91
2022-10-31T15:18:00.915Z,71.99
2022-10-31T15:20:31.112Z,71.96
2022-10-31T15:23:00.108Z,72.02
2022-10-31T15:25:33.513Z,72.23
2022-10-31T15:28:00.861Z,72.24
2022-10-31T15:30:31.161Z,72.30
2022-10-31T15:32:59.234Z,72.22
2022-10-31T15:35:28.764Z,72.15
2022-10-31T15:37:57.937Z,72.30
2022-10-31T15:40:27.189Z,72.02
2022-10-31T15:43:05.698Z,72.00
2022-10-31T15:45:32.858Z,72.14
2022-10-31T15:48:18.378Z,72.27
2022-10-31T15:50:58.516Z,72.32
2022-10-31T15:53:47.740Z,72.35
2022-10-31T15:56:22.585Z,72.20
2022-10-31T15:58:53.316Z,72.30
2022-10-31T16:01:24.841Z,72.16
2022-10-31T16:04:24.865Z,72.28
2022-10-31T16:07:20.191Z,72.29
2022-10-31T16:09:53.733Z,72.24
2022-10-31T16:12:22.757Z,72.19
2022-10-31T16:14:52.702Z,72.32
2022-10-31T16:17:22.755Z,72.46
2022-10-31T16:20:00.096Z,72.29
2022-10-31T16:22:33.912Z,72.32
2022-10-31T16:25:18.024Z,72.38
2022-10-31T16:27:54.587Z,72.33
2022-10-31T16:30:46.807Z,72.24
2022-10-31T16:33:22.944Z,72.21
2022-10-31T16:35:53.252Z,72.27
2022-10-31T16:38:23.509Z,72.22
2022-10-31T16:40:52.465Z,72.39
2022-10-31T16:43:23.143Z,72.44
2022-10-31T16:45:53.776Z,72.41
2022-10-31T16:48:23.581Z,72.33
2022-10-31T16:50:53.973Z,72.27
2022-10-31T16:53:21.124Z,72.31
2022-10-31T16:56:03.680Z,72.34
2022-10-31T16:58:34.050Z,72.52
2022-10-31T17:01:02.642Z,72.41
2022-10-31T17:03:29.822Z,72.59
2022-10-31T17:05:57.226Z,72.48
2022-10-31T17:08:25.015Z,72.39
2022-10-31T17:10:54.797Z,72.78
2022-10-31T17:13:25.552Z,72.68
2022-10-31T17:15:55.409Z,72.53
2022-10-31T17:18:27.139Z,72.71
2022-10-31T17:21:00.292Z,72.65
2022-10-31T17:23:28.623Z,72.56
2022-10-31T17:25:56.958Z,72.80
2022-10-31T17:28:26.594Z,72.85
2022-10-31T17:30:55.902Z,72.81
2022-10-31T17:33:22.948Z,72.91
2022-10-31T17:35:50.170Z,72.88
2022-10-31T17:38:17.412Z,72.76
2022-10-31T17:40:44.619Z,72.73
2022-10-31T17:43:12.571Z,72.66
2022-10-31T17:45:41.487Z,72.74
2022-10-31T17:48:12.411Z,72.77
2022-10-31T17:50:39.621Z,72.78
2022-10-31T17:53:06.608Z,72.71
2022-10-31T17:55:36.984Z,72.86
2022-10-31T17:58:05.515Z,72.74
2022-10-31T18:00:32.607Z,72.94
2022-10-31T18:03:00.025Z,72.82
2022-10-31T18:05:27.503Z,72.75
2022-10-31T18:07:56.495Z,72.91
2022-10-31T18:10:25.745Z,72.93
2022-10-31T18:12:53.012Z,72.77
2022-10-31T18:15:20.433Z,73.03
2022-10-31T18:17:47.556Z,72.91
2022-10-31T18:20:14.577Z,72.88
2022-10-31T18:22:41.789Z,73.00
2022-10-31T18:25:09.080Z,72.91
2022-10-31T18:27:36.119Z,72.89
2022-10-31T18:30:03.493Z,72.93
2022-10-31T18:32:30.539Z,72.96
2022-10-31T18:34:57.689Z,72.88
2022-10-31T18:37:24.735Z,73.00
2022-10-31T18:39:51.852Z,73.08
2022-10-31T18:42:19.021Z,73.14
2022-10-31T18:44:46.070Z,73.04
2022-10-31T18:47:13.226Z,73.00
2022-10-31T18:49:40.367Z,72.94
2022-10-31T18:52:07.400Z,72.98
2022-10-31T18:54:34.495Z,72.96
2022-10-31T18:57:01.645Z,73.00
2022-10-31T18:59:28.648Z,73.08
2022-10-31T19:01:56.919Z,73.12
2022-10-31T19:04:24.312Z,73.07
2022-10-31T19:06:51.392Z,73.11
2022-10-31T19:09:18.630Z,73.12
2022-10-31T19:11:45.915Z,73.13
2022-10-31T19:14:14.921Z,73.11
2022-10-31T19:16:42.188Z,73.25
2022-10-31T19:19:09.799Z,73.17
2022-10-31T19:21:36.716Z,73.20
2022-10-31T19:24:04.048Z,73.06
2022-10-31T19:26:33.911Z,73.23
2022-10-31T19:29:01.140Z,73.23
2022-10-31T19:31:28.198Z,73.16
2022-10-31T19:33:55.369Z,73.24
2022-10-31T19:36:22.866Z,73.24
2022-10-31T19:38:52.449Z,73.16
2022-10-31T19:41:20.886Z,72.96
2022-10-31T19:43:48.503Z,73.08
2022-10-31T19:46:22.828Z,73.23
2022-10-31T19:49:01.348Z,73.23
2022-10-31T19:51:28.613Z,73.35
2022-10-31T19:53:55.767Z,73.26
2022-10-31T19:56:25.096Z,73.27
2022-10-31T19:58:52.567Z,73.36
2022-10-31T20:01:22.783Z,73.33
2022-10-31T20:03:50.688Z,73.30
2022-10-31T20:06:26.859Z,73.23
2022-10-31T20:08:56.311Z,73.07
2022-10-31T20:11:25.301Z,73.33
2022-10-31T20:13:55.028Z,73.35
2022-10-31T20:16:22.368Z,73.14
2022-10-31T20:18:49.736Z,73.38
2022-10-31T20:21:20.316Z,73.36
2022-10-31T20:23:47.894Z,73.29
2022-10-31T20:26:18.042Z,73.22
2022-10-31T20:28:46.517Z,73.26
2022-10-31T20:31:21.902Z,73.44
2022-10-31T20:33:49.553Z,73.29
2022-10-31T20:36:21.168Z,73.24
2022-10-31T20:38:48.193Z,73.35
2022-10-31T20:41:16.229Z,73.46
2022-10-31T20:43:43.976Z,73.61
2022-10-31T20:46:19.725Z,73.57
2022-10-31T20:48:47.725Z,73.36
2022-10-31T20:51:18.177Z,73.41
2022-10-31T20:53:45.369Z,73.32
2022-10-31T20:56:15.037Z,73.44
2022-10-31T20:58:43.752Z,73.42
2022-10-31T21:01:14.351Z,73.49
2022-10-31T21:03:42.419Z,73.51
2022-10-31T21:06:10.193Z,73.50
2022-10-31T21:08:38.264Z,73.35
2022-10-31T21:11:11.385Z,73.49
2022-10-31T21:13:43.324Z,73.31
2022-10-31T21:16:12.796Z,73.49
2022-10-31T21:18:42.129Z,73.47
2022-10-31T21:21:10.961Z,73.37
2022-10-31T21:23:38.704Z,73.50
2022-10-31T21:26:13.194Z,73.32
2022-10-31T21:28:40.801Z,73.35
2022-10-31T21:31:09.870Z,73.36
2022-10-31T21:33:37.584Z,73.54
2022-10-31T21:36:06.129Z,73.38
2022-10-31T21:38:34.485Z,73.40
2022-10-31T21:41:03.973Z,73.47
2022-10-31T21:43:32.052Z,73.55
2022-10-31T21:46:04.462Z,73.51
2022-10-31T21:48:31.839Z,73.53
2022-10-31T21:51:06.380Z,73.56
2022-10-31T21:53:52.232Z,73.35
2022-10-31T21:56:19.684Z,73.60
2022-10-31T21:58:46.868Z,73.40
2022-10-31T22:01:14.183Z,73.38
2022-10-31T22:03:42.313Z,73.40
2022-10-31T22:06:11.329Z,73.39
2022-10-31T22:08:39.808Z,73.28
2022-10-31T22:11:11.585Z,73.36
2022-10-31T22:13:38.637Z,73.64
2022-10-31T22:16:08.131Z,73.47
2022-10-31T22:18:35.880Z,73.43
2022-10-31T22:21:02.941Z,73.40
2022-10-31T22:23:30.987Z,73.55
2022-10-31T22:26:06.565Z,73.30
2022-10-31T22:28:33.806Z,73.58
2022-10-31T22:31:08.157Z,73.21
2022-10-31T22:33:36.777Z,73.63
2022-10-31T22:36:07.249Z,73.54
2022-10-31T22:38:40.077Z,73.53
2022-10-31T22:41:09.822Z,73.51
2022-10-31T22:43:37.487Z,73.53
2022-10-31T22:46:06.605Z,73.58
2022-10-31T22:48:40.887Z,73.46
2022-10-31T22:51:12.704Z,73.71
2022-10-31T22:53:40.623Z,73.62
2022-10-31T22:56:08.981Z,73.71
2022-10-31T22:58:36.919Z,73.57
2022-10-31T23:01:15.199Z,73.39
2022-10-31T23:03:43.127Z,73.61
2022-10-31T23:06:14.446Z,73.62
2022-10-31T23:08:42.716Z,73.62
2022-10-31T23:11:22.276Z,73.39
2022-10-31T23:14:10.773Z,73.40
2022-10-31T23:16:58.777Z,73.55
2022-10-31T23:19:30.554Z,73.55
2022-10-31T23:22:04.172Z,73.61
2022-10-31T23:24:39.822Z,73.62
2022-10-31T23:27:10.439Z,73.60
2022-10-31T23:29:54.169Z,73.69
2022-10-31T23:32:28.776Z,73.51
2022-10-31T23:34:59.907Z,73.64
2022-10-31T23:37:29.656Z,73.65
2022-10-31T23:39:57.189Z,73.52
2022-10-31T23:42:25.109Z,73.60
2022-10-31T23:44:52.554Z,73.71
2022-10-31T23:47:20.286Z,73.62
2022-10-31T23:49:48.061Z,73.46
2022-10-31T23:52:16.018Z,73.66
2022-10-31T23:54:43.472Z,73.57
2022-10-31T23:57:12.874Z,73.45
2022-10-31T23:59:39.953Z,73.46
